Time;durP1;ratioP1;P1;durP2;ratioP2;P2;SDS_P1;SDS_P2;PMS_P1;PMS_P2;Temp;Humidity;BMP_temperature;BMP_pressure;BME280_temperature;BME280_humidity;BME280_pressure;Samples;Min_cycle;Max_cycle;Signal;HPM_P1;HPM_P2
2022/08/22 00:00:21;;;;;;;3.33;1.50;;;;;;;17.71;89.09;100795.69;2072418;28;20069;-77
2022/08/22 00:01:38;;;;;;;3.15;1.50;;;;;;;17.75;89.07;100789.31;2071361;28;20048;-76
2022/08/22 00:02:51;;;;;;;4.95;1.70;;;;;;;17.73;89.32;100790.75;2064978;28;20053;-77
2022/08/22 00:04:21;;;;;;;3.70;1.90;;;;;;;17.75;89.34;100791.22;2071811;28;20048;-77
2022/08/22 00:05:34;;;;;;;5.15;1.60;;;;;;;17.75;89.23;100786.59;2063440;28;20065;-76
2022/08/22 00:06:41;;;;;;;2.45;1.20;;;;;;;17.75;88.98;100788.50;2064967;28;20050;-76
2022/08/22 00:08:02;;;;;;;4.25;1.58;;;;;;;17.73;89.30;100794.25;2063283;28;20037;-77
2022/08/22 00:09:19;;;;;;;4.78;1.45;;;;;;;17.70;89.50;100789.47;2065916;28;20046;-79
2022/08/22 00:10:36;;;;;;;2.95;1.40;;;;;;;17.72;89.46;100792.66;2061233;28;20046;-76
2022/08/22 00:11:58;;;;;;;3.13;1.40;;;;;;;17.72;89.26;100792.66;2073182;28;20057;-76
2022/08/22 00:13:11;;;;;;;2.40;1.60;;;;;;;17.73;88.97;100791.53;2076868;28;20506;-76
2022/08/22 00:14:25;;;;;;;4.00;1.60;;;;;;;17.77;89.01;100789.78;2072400;28;20053;-76
2022/08/22 00:15:33;;;;;;;4.95;1.50;;;;;;;17.77;89.34;100792.53;2056956;28;20050;-76
2022/08/22 00:16:44;;;;;;;3.28;1.50;;;;;;;17.74;89.57;100795.84;2057798;28;20151;-77
2022/08/22 00:17:59;;;;;;;1.92;1.33;;;;;;;17.73;89.41;100793.47;2073056;28;20057;-76
2022/08/22 00:19:23;;;;;;;2.97;1.40;;;;;;;17.68;89.22;100790.91;2071223;28;20044;-75
2022/08/22 00:20:44;;;;;;;4.35;2.13;;;;;;;17.65;89.19;100786.88;2070132;28;20034;-73
2022/08/22 00:22:03;;;;;;;5.30;1.40;;;;;;;17.66;89.11;100793.94;2072813;28;20041;-74
2022/08/22 00:23:37;;;;;;;3.15;1.70;;;;;;;17.67;89.45;100789.31;2059269;28;20042;-74
2022/08/22 00:24:51;;;;;;;2.83;1.80;;;;;;;17.69;89.33;100792.50;2066100;28;20050;-76
2022/08/22 00:26:05;;;;;;;3.17;1.42;;;;;;;17.65;89.62;100792.34;2066676;28;20045;-76
2022/08/22 00:27:13;;;;;;;5.88;1.90;;;;;;;17.68;89.70;100799.06;2073014;28;20394;-76
2022/08/22 00:28:20;;;;;;;3.53;1.58;;;;;;;17.68;89.78;100794.41;2073771;28;20034;-76
2022/08/22 00:29:35;;;;;;;5.03;1.50;;;;;;;17.69;89.81;100793.31;2072949;28;20041;-75
2022/08/22 00:30:48;;;;;;;5.28;1.65;;;;;;;17.70;89.67;100799.53;2071545;28;20149;-75
2022/08/22 00:32:25;;;;;;;6.70;1.98;;;;;;;17.69;89.51;100796.03;2074478;28;20042;-75
2022/08/22 00:33:31;;;;;;;6.85;1.73;;;;;;;17.71;89.38;100801.94;2066492;28;20034;-75
2022/08/22 00:34:42;;;;;;;7.95;1.75;;;;;;;17.72;89.29;100791.88;2065272;28;20050;-75
2022/08/22 00:35:54;;;;;;;2.40;1.48;;;;;;;17.71;89.26;100793.78;2058309;28;20030;-75
2022/08/22 00:37:14;;;;;;;3.33;1.52;;;;;;;17.72;89.36;100802.75;2060535;28;20038;-76
2022/08/22 00:38:23;;;;;;;3.70;1.70;;;;;;;17.71;89.42;100801.94;2074211;28;20037;-76
2022/08/22 00:39:54;;;;;;;9.65;1.60;;;;;;;17.72;89.43;100802.75;2078056;28;20033;-75
2022/08/22 00:41:08;;;;;;;5.32;1.55;;;;;;;17.70;89.70;100797.63;2056618;28;20058;-76
2022/08/22 00:42:21;;;;;;;3.58;1.50;;;;;;;17.70;89.71;100800.34;2054739;28;20038;-76
2022/08/22 00:44:00;;;;;;;4.18;1.45;;;;;;;17.72;89.51;100803.56;2050618;28;20043;-75
2022/08/22 00:45:36;;;;;;;8.63;1.83;;;;;;;17.73;89.82;100805.13;2051298;28;20042;-73
2022/08/22 00:47:19;;;;;;;3.40;1.50;;;;;;;17.73;89.88;100793.47;2064427;28;20038;-76
2022/08/22 00:48:39;;;;;;;4.28;1.60;;;;;;;17.73;89.85;100799.69;2050239;28;20219;-75
2022/08/22 00:49:53;;;;;;;4.28;1.60;;;;;;;17.74;89.76;100793.13;2072858;28;20045;-76
2022/08/22 00:51:22;;;;;;;3.00;1.80;;;;;;;17.76;89.85;100798.25;2064679;28;20355;-76
2022/08/22 00:52:37;;;;;;;4.47;1.80;;;;;;;17.76;89.88;100799.06;2064216;28;20065;-76
2022/08/22 00:54:05;;;;;;;8.15;1.77;;;;;;;17.75;89.88;100793.94;2065872;28;20050;-76
2022/08/22 00:55:51;;;;;;;1.88;1.50;;;;;;;17.76;89.62;100799.06;2073235;28;20393;-77
2022/08/22 00:57:17;;;;;;;2.58;1.63;;;;;;;17.75;89.24;100793.94;2081226;28;20034;-79
2022/08/22 00:58:44;;;;;;;2.78;1.83;;;;;;;17.76;89.43;100790.91;2072704;28;20065;-79
2022/08/22 01:00:13;;;;;;;8.40;2.10;;;;;;;17.76;89.46;100792.81;2075504;28;20041;-82
2022/08/22 01:01:29;;;;;;;4.70;1.92;;;;;;;17.76;89.66;100796.34;2077776;28;20038;-80
2022/08/22 01:02:52;;;;;;;7.13;1.60;;;;;;;17.77;89.74;100797.16;2073783;28;20046;-80
2022/08/22 01:04:01;;;;;;;7.70;1.90;;;;;;;17.78;89.64;100802.31;2073131;28;20170;-80
2022/08/22 01:05:18;;;;;;;4.88;1.70;;;;;;;17.76;89.62;100804.50;2064649;28;20367;-79
2022/08/22 01:06:42;;;;;;;2.58;1.90;;;;;;;17.76;89.71;100798.25;2071853;28;20042;-79
2022/08/22 01:07:52;;;;;;;3.22;1.75;;;;;;;17.75;89.79;100794.75;2066383;28;20031;-80
2022/08/22 01:09:10;;;;;;;7.53;1.90;;;;;;;17.75;89.78;100792.03;2064385;28;20536;-79
2022/08/22 01:10:47;;;;;;;5.65;1.80;;;;;;;17.74;89.81;100790.41;2060029;28;20391;-79
2022/08/22 01:12:03;;;;;;;5.57;1.77;;;;;;;17.73;89.99;100794.25;2073262;28;20041;-79
2022/08/22 01:13:21;;;;;;;3.30;1.60;;;;;;;17.69;90.08;100778.91;2064522;28;20047;-79
2022/08/22 01:14:22;;;;;;;4.15;1.73;;;;;;;17.69;90.32;100789.78;2067088;28;20053;-79
2022/08/22 01:15:34;;;;;;;4.85;1.70;;;;;;;17.67;90.34;100783.88;2064524;28;20413;-77
2022/08/22 01:16:43;;;;;;;4.50;1.90;;;;;;;17.68;90.63;100778.09;2059435;28;20046;-80
2022/08/22 01:18:05;;;;;;;3.47;1.90;;;;;;;17.64;90.79;100784.50;2056576;28;20038;-80
2022/08/22 01:19:27;;;;;;;2.30;1.63;;;;;;;17.66;91.09;100788.50;2054673;28;20038;-80
2022/08/22 01:20:57;;;;;;;4.75;1.65;;;;;;;17.68;90.96;100785.47;2055468;28;20426;-80
2022/08/22 01:22:41;;;;;;;3.40;2.00;;;;;;;17.64;90.96;100787.22;2064973;28;20054;-80
2022/08/22 01:24:20;;;;;;;4.53;1.83;;;;;;;17.66;91.03;100787.72;2065365;28;20046;-80
2022/08/22 01:26:01;;;;;;;2.60;1.50;;;;;;;17.68;90.73;100785.47;2064619;28;20046;-76
2022/08/22 01:27:57;;;;;;;3.78;1.80;;;;;;;17.68;90.39;100775.38;2065283;28;20042;-76
2022/08/22 01:29:04;;;;;;;2.65;1.67;;;;;;;17.67;90.25;100779.22;2056561;28;20039;-76
2022/08/22 01:30:11;;;;;;;4.95;2.13;;;;;;;17.64;90.47;100774.44;2060702;28;20353;-76
2022/08/22 01:31:43;;;;;;;4.53;1.92;;;;;;;17.66;90.43;100783.06;2081726;28;20370;-76
2022/08/22 01:33:24;;;;;;;3.20;1.50;;;;;;;17.66;90.25;100780.34;2081561;28;20033;-77
2022/08/22 01:34:47;;;;;;;4.03;1.70;;;;;;;17.69;90.26;100787.88;2072715;28;20046;-74
2022/08/22 01:36:12;;;;;;;5.85;1.83;;;;;;;17.67;90.40;100786.59;2064560;28;20525;-73
2022/08/22 01:37:28;;;;;;;3.20;1.70;;;;;;;17.68;90.31;100793.63;2072362;28;20042;-75
2022/08/22 01:39:11;;;;;;;2.25;1.63;;;;;;;17.70;90.15;100786.75;2064368;28;20049;-75
2022/08/22 01:40:44;;;;;;;5.55;2.13;;;;;;;17.70;90.31;100789.47;2061590;28;20042;-76
2022/08/22 01:42:04;;;;;;;4.28;1.50;;;;;;;17.69;90.65;100793.31;2064308;28;20042;-75
2022/08/22 01:43:16;;;;;;;4.20;1.75;;;;;;;17.71;90.61;100799.22;2067096;28;20054;-74
2022/08/22 01:44:44;;;;;;;2.00;1.65;;;;;;;17.70;91.03;100791.38;2064250;28;20054;-75
2022/08/22 01:46:09;;;;;;;6.00;1.95;;;;;;;17.71;91.10;100798.41;2067691;28;20041;-76
2022/08/22 01:47:28;;;;;;;3.08;1.60;;;;;;;17.72;90.94;100798.09;2061272;28;20047;-76
2022/08/22 01:48:29;;;;;;;4.28;1.77;;;;;;;17.72;90.93;100791.88;2064147;28;20415;-76
2022/08/22 01:49:34;;;;;;;7.00;1.80;;;;;;;17.70;90.75;100800.34;2056424;28;20042;-76
2022/08/22 01:50:37;;;;;;;4.55;1.90;;;;;;;17.72;90.75;100800.81;2064069;28;20491;-75
2022/08/22 01:52:10;;;;;;;6.72;1.85;;;;;;;17.74;90.66;100795.06;2065191;28;20497;-75
2022/08/22 01:53:26;;;;;;;3.70;1.73;;;;;;;17.72;90.57;100795.38;2047608;29;20484;-76
2022/08/22 01:54:53;;;;;;;3.92;1.75;;;;;;;17.71;90.72;100798.41;2063964;28;20058;-77
2022/08/22 01:56:11;;;;;;;4.30;1.60;;;;;;;17.67;90.79;100795.53;2075413;28;20061;-78
2022/08/22 01:57:16;;;;;;;5.45;1.77;;;;;;;17.67;90.70;100800.97;2080848;28;20049;-77
2022/08/22 01:58:21;;;;;;;5.47;1.80;;;;;;;17.70;90.74;100805.78;2072457;28;20052;-77
2022/08/22 01:59:45;;;;;;;4.90;1.80;;;;;;;17.68;90.78;100807.22;2064469;28;20054;-77
2022/08/22 02:01:00;;;;;;;4.88;1.80;;;;;;;17.67;90.85;100805.63;2062801;28;20429;-79
2022/08/22 02:02:31;;;;;;;2.67;1.50;;;;;;;17.69;90.85;100806.91;2071187;28;20032;-79
2022/08/22 02:03:54;;;;;;;4.60;1.55;;;;;;;17.70;90.99;100800.34;2073534;28;20049;-79
2022/08/22 02:05:17;;;;;;;6.30;2.17;;;;;;;17.70;90.96;100813.13;2066517;28;20038;-79
2022/08/22 02:06:32;;;;;;;4.95;1.73;;;;;;;17.71;91.23;100812.81;2063527;28;20391;-78
2022/08/22 02:08:07;;;;;;;7.20;2.15;;;;;;;17.70;91.30;100808.50;2058002;28;20046;-79
2022/08/22 02:09:21;;;;;;;7.68;1.98;;;;;;;17.68;91.54;100808.00;2065327;28;20046;-79
2022/08/22 02:10:50;;;;;;;5.53;1.90;;;;;;;17.68;91.64;100810.72;2072173;28;20049;-78
2022/08/22 02:12:27;;;;;;;4.00;1.67;;;;;;;17.68;91.97;100808.00;2072250;28;20048;-77
2022/08/22 02:14:06;;;;;;;2.90;1.98;;;;;;;17.69;91.94;100819.72;2069085;28;20042;-78
2022/08/22 02:15:24;;;;;;;3.95;1.80;;;;;;;17.66;92.16;100815.69;2061034;28;20413;-77
2022/08/22 02:16:43;;;;;;;2.75;1.63;;;;;;;17.67;91.97;100820.00;2052864;28;20422;-77
2022/08/22 02:18:07;;;;;;;2.38;1.77;;;;;;;17.66;92.05;100826.59;2066516;28;20065;-79
2022/08/22 02:19:15;;;;;;;2.88;1.85;;;;;;;17.69;91.91;100817.78;2072937;28;20056;-78
2022/08/22 02:20:25;;;;;;;5.07;1.85;;;;;;;17.70;92.06;100819.38;2063832;28;20038;-77
2022/08/22 02:22:28;;;;;;;6.20;2.00;;;;;;;17.71;91.97;100817.44;2066941;28;20034;-76
2022/08/22 02:23:54;;;;;;;4.40;1.75;;;;;;;17.71;91.93;100825.59;2066742;28;20572;-76
2022/08/22 02:25:20;;;;;;;3.88;1.70;;;;;;;17.69;92.06;100823.22;2064341;28;20073;-77
2022/08/22 02:26:50;;;;;;;3.75;1.60;;;;;;;17.69;92.11;100825.16;2059200;28;20042;-77
2022/08/22 02:28:26;;;;;;;4.43;1.95;;;;;;;17.67;92.20;100819.22;2068107;28;20038;-77
2022/08/22 02:29:59;;;;;;;2.78;1.73;;;;;;;17.61;92.36;100816.66;2064118;28;20046;-76
2022/08/22 02:31:03;;;;;;;8.00;2.05;;;;;;;17.63;92.45;100820.97;2064471;28;20041;-77
2022/08/22 02:32:17;;;;;;;3.97;1.80;;;;;;;17.61;92.44;100813.94;2064035;28;20046;-77
2022/08/22 02:33:44;;;;;;;6.25;2.42;;;;;;;17.60;92.73;100811.53;2068084;28;20483;-76
2022/08/22 02:35:05;;;;;;;3.65;1.80;;;;;;;17.59;92.78;100815.34;2073490;28;20049;-77
2022/08/22 02:36:40;;;;;;;5.72;1.73;;;;;;;17.53;93.10;100814.75;2063816;28;20057;-78
2022/08/22 02:38:18;;;;;;;5.60;1.95;;;;;;;17.56;92.87;100822.25;2071836;28;20041;-78
2022/08/22 02:39:54;;;;;;;8.68;2.03;;;;;;;17.52;93.01;100821.28;2061117;28;20106;-78
2022/08/22 02:41:18;;;;;;;5.38;2.10;;;;;;;17.50;93.31;100820.03;2059993;28;20049;-78
2022/08/22 02:42:44;;;;;;;9.40;2.00;;;;;;;17.48;93.20;100822.25;2062070;28;20034;-80
2022/08/22 02:43:52;;;;;;;5.20;1.98;;;;;;;17.50;93.27;100822.75;2075852;28;20033;-79
2022/08/22 02:45:12;;;;;;;5.03;1.90;;;;;;;17.49;93.45;100826.56;2055869;28;20030;-78
2022/08/22 02:46:16;;;;;;;7.78;2.25;;;;;;;17.50;93.51;100820.03;2064959;28;20049;-77
2022/08/22 02:47:28;;;;;;;3.08;1.77;;;;;;;17.50;93.69;100822.75;2064023;28;20034;-79
2022/08/22 02:49:21;;;;;;;5.13;2.03;;;;;;;17.47;93.59;100818.72;2065085;28;20050;-77
2022/08/22 02:50:30;;;;;;;4.68;1.63;;;;;;;17.50;93.58;100822.75;2063387;28;20038;-77
2022/08/22 02:52:06;;;;;;;5.82;1.80;;;;;;;17.47;93.52;100823.38;2069221;28;20044;-77
2022/08/22 02:53:41;;;;;;;3.92;2.10;;;;;;;17.46;93.68;100821.75;2060130;28;20046;-78
2022/08/22 02:54:58;;;;;;;4.03;1.83;;;;;;;17.46;93.67;100821.75;2052152;28;20042;-79
2022/08/22 02:56:11;;;;;;;1.83;1.55;;;;;;;17.47;93.77;100823.38;2052724;28;20039;-78
2022/08/22 02:57:58;;;;;;;2.58;2.00;;;;;;;17.46;93.73;100817.13;2063870;28;20706;-82
2022/08/22 02:59:12;;;;;;;8.45;2.13;;;;;;;17.49;93.80;100823.84;2068612;28;20049;-79
2022/08/22 03:00:27;;;;;;;4.63;2.10;;;;;;;17.50;93.79;100823.53;2063427;28;20093;-80
2022/08/22 03:01:32;;;;;;;8.55;1.95;;;;;;;17.48;93.74;100819.53;2070088;28;20042;-80
2022/08/22 03:02:58;;;;;;;5.00;1.92;;;;;;;17.47;93.75;100824.16;2074165;28;20046;-80
2022/08/22 03:04:31;;;;;;;7.00;1.73;;;;;;;17.44;93.93;100826.72;2065018;28;20058;-83
2022/08/22 03:05:35;;;;;;;3.17;2.30;;;;;;;17.42;93.99;100821.59;2072802;28;20040;-83
2022/08/22 03:07:04;;;;;;;4.10;1.80;;;;;;;17.44;93.89;100824.00;2072183;28;20037;-81
2022/08/22 03:08:26;;;;;;;4.40;1.83;;;;;;;17.45;93.77;100820.16;2072210;28;20045;-81
2022/08/22 03:09:35;;;;;;;5.75;2.10;;;;;;;17.43;93.70;100825.09;2063731;28;20038;-81
2022/08/22 03:10:46;;;;;;;3.05;1.70;;;;;;;17.42;93.75;100816.16;2064150;28;20049;-82
2022/08/22 03:12:02;;;;;;;4.95;1.98;;;;;;;17.39;93.93;100827.66;2079876;28;20040;-77
2022/08/22 03:13:30;;;;;;;4.88;1.90;;;;;;;17.36;94.01;100818.22;2072211;28;20524;-78
2022/08/22 03:14:54;;;;;;;5.03;2.00;;;;;;;17.35;94.18;100822.06;2058479;28;20050;-77
2022/08/22 03:16:04;;;;;;;5.60;1.98;;;;;;;17.38;94.10;100828.78;2061736;28;20041;-77
2022/08/22 03:17:12;;;;;;;4.63;2.03;;;;;;;17.34;94.14;100820.47;2064022;28;20038;-77
2022/08/22 03:18:43;;;;;;;4.88;2.78;;;;;;;17.35;94.32;100822.06;2071686;28;20053;-77
2022/08/22 03:20:06;;;;;;;11.65;2.75;;;;;;;17.36;94.34;100823.66;2072960;28;20037;-80
2022/08/22 03:21:19;;;;;;;3.47;2.17;;;;;;;17.37;94.35;100825.28;2063656;28;20035;-77
2022/08/22 03:22:47;;;;;;;2.50;1.83;;;;;;;17.38;94.20;100823.34;2066602;28;20038;-77
2022/08/22 03:23:55;;;;;;;4.57;2.05;;;;;;;17.36;94.19;100820.94;2071847;28;20406;-78
2022/08/22 03:25:11;;;;;;;5.93;2.30;;;;;;;17.37;94.31;100825.28;2056030;28;20034;-77
2022/08/22 03:26:45;;;;;;;4.63;1.90;;;;;;;17.38;94.33;100823.34;2060554;28;20047;-78
2022/08/22 03:27:56;;;;;;;5.88;1.90;;;;;;;17.38;94.23;100826.88;2059820;28;20414;-78
2022/08/22 03:29:08;;;;;;;6.45;2.10;;;;;;;17.35;94.28;100824.78;2064886;28;20035;-78
2022/08/22 03:30:20;;;;;;;6.18;2.15;;;;;;;17.34;94.36;100819.69;2066433;28;20073;-78
2022/08/22 03:31:27;;;;;;;5.72;1.90;;;;;;;17.36;94.40;100822.84;2073415;28;20375;-77
2022/08/22 03:32:46;;;;;;;6.15;2.15;;;;;;;17.35;94.23;100819.34;2080081;28;20037;-77
2022/08/22 03:34:21;;;;;;;3.72;2.10;;;;;;;17.34;94.20;100815.03;2056435;28;20055;-78
2022/08/22 03:35:25;;;;;;;4.88;1.92;;;;;;;17.32;94.27;100817.25;2052942;28;20112;-77
2022/08/22 03:36:30;;;;;;;5.85;2.58;;;;;;;17.33;94.44;100820.78;2048049;28;20051;-77
2022/08/22 03:37:36;;;;;;;5.88;2.05;;;;;;;17.33;94.31;100820.78;2063612;28;20042;-78
2022/08/22 03:39:07;;;;;;;3.30;2.13;;;;;;;17.31;94.64;100823.81;2071356;28;20053;-78
2022/08/22 03:40:30;;;;;;;4.07;2.20;;;;;;;17.32;94.64;100814.53;2071054;28;20126;-78
2022/08/22 03:41:40;;;;;;;6.82;2.40;;;;;;;17.35;94.72;100816.63;2058128;28;20053;-78
2022/08/22 03:43:26;;;;;;;6.72;2.33;;;;;;;17.33;94.65;100816.13;2064923;28;20047;-79
2022/08/22 03:44:36;;;;;;;3.35;2.13;;;;;;;17.31;94.65;100818.38;2061119;28;20371;-78
2022/08/22 03:46:00;;;;;;;4.97;2.42;;;;;;;17.32;94.79;100814.53;2064690;28;20485;-78
2022/08/22 03:47:20;;;;;;;4.88;2.30;;;;;;;17.34;94.88;100820.47;2072376;28;20025;-78
2022/08/22 03:48:43;;;;;;;9.98;2.45;;;;;;;17.34;95.05;100814.25;2071999;28;20034;-78
2022/08/22 03:49:52;;;;;;;6.55;2.20;;;;;;;17.33;95.03;100818.06;2063411;28;20054;-78
2022/08/22 03:51:02;;;;;;;6.60;3.20;;;;;;;17.36;95.16;100818.22;2065374;28;20046;-78
2022/08/22 03:52:34;;;;;;;7.68;2.00;;;;;;;17.36;94.91;100822.84;2079025;28;20045;-78
2022/08/22 03:53:49;;;;;;;7.18;3.70;;;;;;;17.40;94.94;100820.31;2072340;28;20049;-78
2022/08/22 03:55:18;;;;;;;7.22;3.30;;;;;;;17.42;95.12;100826.22;2064001;28;20057;-78
2022/08/22 03:56:37;;;;;;;5.03;2.50;;;;;;;17.44;95.01;100824.00;2067428;28;20038;-78
2022/08/22 03:57:59;;;;;;;9.82;3.03;;;;;;;17.45;94.97;100828.31;2063756;28;20042;-78
2022/08/22 03:59:24;;;;;;;5.70;2.20;;;;;;;17.46;94.88;100824.47;2067449;28;20045;-79
2022/08/22 04:00:25;;;;;;;4.32;2.15;;;;;;;17.49;94.75;100826.56;2068576;28;20049;-78
2022/08/22 04:01:37;;;;;;;4.30;2.25;;;;;;;17.50;94.73;100820.81;2063762;28;20049;-78
2022/08/22 04:02:47;;;;;;;3.78;2.10;;;;;;;17.51;94.56;100838.72;2065067;28;20046;-78
2022/08/22 04:04:09;;;;;;;3.92;2.10;;;;;;;17.51;94.51;100829.75;2070882;28;20525;-77
2022/08/22 04:05:38;;;;;;;3.67;2.17;;;;;;;17.54;94.38;100834.56;2064065;28;20367;-76
2022/08/22 04:06:48;;;;;;;3.47;2.25;;;;;;;17.56;94.40;100837.78;2079646;28;20056;-77
2022/08/22 04:07:54;;;;;;;2.50;2.13;;;;;;;17.57;94.41;100829.28;2072119;28;20057;-77
2022/08/22 04:09:14;;;;;;;2.35;2.08;;;;;;;17.60;94.34;100830.56;2071387;28;20101;-77
2022/08/22 04:10:41;;;;;;;2.92;2.30;;;;;;;17.65;94.08;100835.84;2071527;28;20116;-77
2022/08/22 04:12:00;;;;;;;6.20;2.30;;;;;;;17.60;94.26;100834.09;2066609;28;20033;-78
2022/08/22 04:13:23;;;;;;;5.55;2.55;;;;;;;17.65;94.16;100835.84;2065478;28;20042;-77
2022/08/22 04:14:27;;;;;;;8.38;2.40;;;;;;;17.68;94.09;100840.63;2065978;28;20046;-77
2022/08/22 04:16:02;;;;;;;5.32;2.60;;;;;;;17.72;94.03;100838.09;2071633;28;20042;-77
2022/08/22 04:17:27;;;;;;;5.25;2.10;;;;;;;17.77;93.83;100835.25;2079621;28;20044;-78
2022/08/22 04:18:36;;;;;;;6.50;1.85;;;;;;;17.79;93.70;100843.88;2071543;28;20045;-77
2022/08/22 04:19:57;;;;;;;4.80;1.90;;;;;;;17.80;93.60;100840.84;2061812;28;20047;-82
2022/08/22 04:21:18;;;;;;;6.57;2.40;;;;;;;17.87;93.41;100843.06;2065746;28;20038;-77
2022/08/22 04:22:50;;;;;;;2.78;2.20;;;;;;;17.85;93.47;100839.88;2066214;28;20049;-78
2022/08/22 04:24:00;;;;;;;3.42;2.10;;;;;;;17.89;93.31;100845.47;2059905;28;20038;-80
2022/08/22 04:25:19;;;;;;;2.92;2.40;;;;;;;17.90;93.34;100847.88;2057195;28;20043;-80
2022/08/22 04:26:45;;;;;;;3.03;2.22;;;;;;;17.93;93.43;100839.06;2071923;28;20045;-79
2022/08/22 04:27:52;;;;;;;2.65;2.05;;;;;;;17.93;93.33;100844.50;2063325;28;20522;-78
2022/08/22 04:29:07;;;;;;;8.63;2.53;;;;;;;17.95;93.42;100844.19;2064237;28;20050;-76
2022/08/22 04:30:32;;;;;;;6.13;2.60;;;;;;;18.00;93.19;100842.13;2071868;28;20038;-75
2022/08/22 04:31:54;;;;;;;4.00;2.13;;;;;;;18.02;93.16;100844.50;2071835;28;20034;-75
2022/08/22 04:33:37;;;;;;;5.10;2.20;;;;;;;18.01;93.19;100838.28;2071519;28;20041;-75
2022/08/22 04:34:49;;;;;;;3.95;2.33;;;;;;;17.99;93.25;100840.50;2060266;28;20296;-75
2022/08/22 04:36:33;;;;;;;3.60;2.08;;;;;;;18.04;93.21;100842.28;2056732;28;20042;-75
2022/08/22 04:38:16;;;;;;;4.28;2.53;;;;;;;18.02;93.44;100842.59;2069205;28;20064;-77
2022/08/22 04:39:27;;;;;;;6.43;2.47;;;;;;;18.05;93.54;100844.66;2055054;28;20038;-79
2022/08/22 04:40:42;;;;;;;4.90;2.45;;;;;;;18.05;93.53;100844.66;2064568;28;20041;-80
2022/08/22 04:41:54;;;;;;;6.38;2.35;;;;;;;18.06;93.42;100845.47;2063150;28;20046;-81
2022/08/22 04:43:07;;;;;;;4.63;2.22;;;;;;;18.07;93.63;100847.06;2065136;28;20046;-75
2022/08/22 04:44:26;;;;;;;7.53;2.72;;;;;;;18.09;93.61;100844.81;2063499;28;20054;-76
2022/08/22 04:45:35;;;;;;;4.07;2.20;;;;;;;18.09;93.43;100849.47;2063413;28;20446;-75
2022/08/22 04:47:00;;;;;;;8.50;2.53;;;;;;;18.08;93.67;100854.09;2056417;28;20047;-77
2022/08/22 04:48:30;;;;;;;6.35;2.30;;;;;;;18.08;93.87;100848.66;2058244;28;20042;-80
2022/08/22 04:49:39;;;;;;;5.78;2.60;;;;;;;18.09;93.97;100855.69;2063263;28;20050;-75
2022/08/22 04:50:55;;;;;;;4.07;2.38;;;;;;;18.13;93.97;100855.88;2062560;28;20130;-74
2022/08/22 04:52:12;;;;;;;4.18;2.28;;;;;;;18.17;93.81;100851.38;2062333;28;20046;-74
2022/08/22 04:53:22;;;;;;;4.88;2.60;;;;;;;18.18;93.75;100856.50;2064965;28;20039;-71
2022/08/22 04:54:42;;;;;;;6.95;2.03;;;;;;;18.21;93.64;100858.56;2061541;28;20042;-74
2022/08/22 04:56:11;;;;;;;6.55;2.42;;;;;;;18.19;94.01;100857.28;2069702;28;20045;-69
2022/08/22 04:57:26;;;;;;;7.80;2.40;;;;;;;18.17;94.46;100852.19;2066130;28;20046;-76
2022/08/22 04:58:30;;;;;;;5.70;2.50;;;;;;;18.19;94.73;100857.28;2054060;28;20410;-74
2022/08/22 04:59:33;;;;;;;8.13;2.47;;;;;;;18.21;94.62;100858.56;2062577;28;20038;-73
2022/08/22 05:00:44;;;;;;;3.67;2.25;;;;;;;18.21;94.48;100847.69;2079940;28;20099;-73
2022/08/22 05:01:46;;;;;;;6.18;2.58;;;;;;;18.24;94.44;100852.47;2079762;28;20045;-74
2022/08/22 05:02:51;;;;;;;4.35;2.20;;;;;;;18.25;94.58;100858.72;2071645;28;20507;-73
2022/08/22 05:04:01;;;;;;;6.43;2.45;;;;;;;18.26;94.48;100852.97;2069516;28;20779;-75
2022/08/22 05:05:22;;;;;;;3.92;2.22;;;;;;;18.25;94.28;100856.81;2057053;28;20061;-74
2022/08/22 05:06:35;;;;;;;7.72;2.22;;;;;;;18.25;94.45;100865.00;2063147;28;20592;-73
2022/08/22 05:07:44;;;;;;;7.47;2.63;;;;;;;18.25;94.56;100859.53;2049134;28;20050;-74
2022/08/22 05:08:50;;;;;;;5.25;2.45;;;;;;;18.29;94.65;100857.78;2057826;28;20124;-73
2022/08/22 05:09:59;;;;;;;5.38;2.13;;;;;;;18.34;94.63;100866.88;2072113;28;20033;-75
2022/08/22 05:11:07;;;;;;;5.88;2.55;;;;;;;18.36;94.20;100862.72;2063018;28;20038;-73
2022/08/22 05:12:18;;;;;;;6.45;2.00;;;;;;;18.38;94.20;100860.47;2064870;28;20053;-73
2022/08/22 05:13:29;;;;;;;3.78;2.15;;;;;;;18.42;94.18;100863.34;2064437;28;20042;-73
2022/08/22 05:14:33;;;;;;;8.15;2.65;;;;;;;18.43;94.04;100859.50;2056495;28;20046;-72
2022/08/22 05:15:42;;;;;;;5.10;2.13;;;;;;;18.44;93.75;100861.91;2064177;28;20064;-73
2022/08/22 05:16:51;;;;;;;5.68;2.42;;;;;;;18.47;93.62;100860.44;2071292;28;20435;-73
2022/08/22 05:17:59;;;;;;;6.35;2.25;;;;;;;18.46;93.41;100858.84;2071540;28;20038;-73
2022/08/22 05:19:07;;;;;;;5.90;2.22;;;;;;;18.48;93.39;100862.06;2071682;28;20041;-73
2022/08/22 05:20:15;;;;;;;6.22;2.30;;;;;;;18.51;93.38;100869.56;2071366;28;20470;-74
2022/08/22 05:21:28;;;;;;;7.65;2.50;;;;;;;18.53;93.47;100864.59;2072625;28;20042;-73
2022/08/22 05:22:43;;;;;;;7.25;2.33;;;;;;;18.55;93.33;100867.78;2071602;28;20046;-74
2022/08/22 05:24:04;;;;;;;6.88;3.20;;;;;;;18.61;93.60;100868.44;2073741;28;20156;-74
2022/08/22 05:25:14;;;;;;;7.00;2.85;;;;;;;18.62;93.66;100865.38;2079606;28;20064;-74
2022/08/22 05:26:20;;;;;;;5.68;2.28;;;;;;;18.63;93.72;100868.88;2078518;28;20041;-72
2022/08/22 05:27:30;;;;;;;6.80;2.33;;;;;;;18.66;93.63;100868.22;2068198;28;20053;-73
2022/08/22 05:28:37;;;;;;;3.45;2.22;;;;;;;18.65;93.40;100872.09;2064473;28;20494;-70
2022/08/22 05:29:48;;;;;;;6.53;2.55;;;;;;;18.68;93.41;100872.25;2064099;28;20042;-71
2022/08/22 05:30:50;;;;;;;6.57;2.50;;;;;;;18.70;93.43;100874.66;2063383;28;20030;-74
2022/08/22 05:32:04;;;;;;;4.93;2.40;;;;;;;18.69;93.04;100873.81;2070691;28;20049;-71
2022/08/22 05:33:10;;;;;;;9.95;2.60;;;;;;;18.71;92.96;100874.31;2054383;28;20049;-71
2022/08/22 05:34:23;;;;;;;7.90;2.53;;;;;;;18.75;92.99;100872.56;2049052;28;20622;-75
2022/08/22 05:35:35;;;;;;;11.90;3.95;;;;;;;18.77;93.00;100874.19;2062450;28;20548;-73
2022/08/22 05:36:42;;;;;;;4.88;2.40;;;;;;;18.78;92.78;100881.22;2062469;28;20053;-73
2022/08/22 05:37:52;;;;;;;7.05;2.53;;;;;;;18.80;92.92;100870.81;2071120;28;20034;-88
2022/08/22 05:39:01;;;;;;;5.32;2.50;;;;;;;18.84;92.90;100879.91;2055903;28;20077;-87
2022/08/22 05:40:04;;;;;;;4.75;2.60;;;;;;;18.84;92.87;100880.72;2063973;28;20570;-88
2022/08/22 05:41:15;;;;;;;5.63;2.25;;;;;;;18.86;93.06;100881.19;2063681;28;20064;-88
2022/08/22 05:42:24;;;;;;;5.88;2.70;;;;;;;18.87;92.89;100873.81;2070498;28;20032;-88
2022/08/22 05:43:31;;;;;;;6.10;2.33;;;;;;;18.89;92.74;100877.03;2071914;28;20048;-88
2022/08/22 05:44:41;;;;;;;5.95;2.67;;;;;;;18.87;92.71;100884.72;2071282;28;20041;-88
2022/08/22 05:45:48;;;;;;;6.30;2.85;;;;;;;18.86;92.60;100877.66;2073077;28;20136;-88
2022/08/22 05:46:58;;;;;;;7.43;2.83;;;;;;;18.85;92.77;100882.31;2079464;28;20041;-88
2022/08/22 05:48:26;;;;;;;7.40;2.63;;;;;;;18.87;92.56;100880.06;2071165;28;20046;-88
2022/08/22 05:49:41;;;;;;;5.95;2.63;;;;;;;18.91;92.91;100886.44;2066435;28;20046;-88
2022/08/22 05:50:55;;;;;;;5.30;2.30;;;;;;;18.95;92.88;100887.41;2069816;28;20060;-88
2022/08/22 05:52:07;;;;;;;4.25;2.00;;;;;;;18.96;92.76;100883.53;2065214;28;20065;-88
2022/08/22 05:53:14;;;;;;;6.65;2.60;;;;;;;18.98;92.55;100885.97;2070873;28;20041;-88
2022/08/22 05:54:25;;;;;;;7.57;2.92;;;;;;;19.04;92.91;100889.28;2063116;28;20049;-88
2022/08/22 05:56:01;;;;;;;7.93;3.00;;;;;;;19.04;92.74;100884.66;2056216;28;20049;-88
2022/08/22 05:57:27;;;;;;;7.68;2.53;;;;;;;19.01;92.69;100889.94;2054334;28;20099;-88
2022/08/22 05:58:49;;;;;;;6.40;2.30;;;;;;;19.03;92.61;100893.94;2061726;28;20053;-87
2022/08/22 06:00:01;;;;;;;5.10;2.33;;;;;;;19.02;92.44;100889.63;2066655;28;20052;-88
2022/08/22 06:01:36;;;;;;;3.63;2.50;;;;;;;19.01;92.10;100893.47;2064979;28;20033;-88
2022/08/22 06:03:19;;;;;;;3.97;2.22;;;;;;;19.04;92.05;100892.00;2066484;28;20068;-88
2022/08/22 06:04:44;;;;;;;6.55;2.67;;;;;;;19.06;92.04;100897.94;2058796;28;20513;-88
2022/08/22 06:05:51;;;;;;;6.72;2.20;;;;;;;19.07;92.12;100897.59;2061924;28;21835;-88